Time;durP1;ratioP1;P1;durP2;ratioP2;P2;SDS_P1;SDS_P2;PMS_P1;PMS_P2;Temp;Humidity;BMP_temperature;BMP_pressure;BME280_temperature;BME280_humidity;BME280_pressure;Samples;Min_cycle;Max_cycle;Signal;HPM_P1;HPM_P2
2024/04/22 00:02:06;;;;;;;5.80;3.70;;;;;;;3.06;69.50;100310.95;103224;1255;112695;-72
2024/04/22 00:04:34;;;;;;;5.60;3.60;;;;;;;3.05;69.77;100306.66;103049;1259;138758;-72
2024/04/22 00:07:01;;;;;;;7.00;3.60;;;;;;;3.01;69.64;100309.58;103131;1256;99135;-72
2024/04/22 00:09:28;;;;;;;6.30;3.60;;;;;;;2.99;69.83;100311.64;102220;1256;1003620;-72
2024/04/22 00:11:55;;;;;;;5.50;3.80;;;;;;;3.01;70.02;100310.10;103080;1257;99160;-72
2024/04/22 00:14:21;;;;;;;5.50;3.60;;;;;;;2.99;69.64;100307.00;103123;1256;112706;-70
2024/04/22 00:16:48;;;;;;;5.80;3.40;;;;;;;2.96;69.64;100307.70;102987;1259;138301;-72
2024/04/22 00:19:15;;;;;;;5.90;3.70;;;;;;;2.96;70.03;100302.89;103175;1259;99862;-72
2024/04/22 00:21:42;;;;;;;5.10;3.90;;;;;;;2.95;69.52;100297.58;102980;1256;138924;-72
2024/04/22 00:24:09;;;;;;;4.70;3.60;;;;;;;2.91;69.58;100295.01;102528;1256;1002602;-71
2024/04/22 00:26:36;;;;;;;7.10;3.60;;;;;;;2.85;69.49;100295.15;103092;1256;111972;-72
2024/04/22 00:29:03;;;;;;;6.10;3.60;;;;;;;2.82;69.68;100293.44;103168;1256;138671;-70
2024/04/22 00:31:30;;;;;;;7.10;3.40;;;;;;;2.82;69.77;100291.38;103226;1259;99205;-69
2024/04/22 00:33:57;;;;;;;5.90;3.50;;;;;;;2.81;69.63;100291.55;103345;1256;139286;-72
2024/04/22 00:36:24;;;;;;;6.30;3.50;;;;;;;2.80;69.79;100295.67;103263;1257;99225;-72
2024/04/22 00:38:51;;;;;;;6.80;3.60;;;;;;;2.81;69.75;100289.48;103135;1256;113536;-71
2024/04/22 00:41:18;;;;;;;5.50;3.70;;;;;;;2.80;69.68;100290.52;103026;1257;138330;-71
2024/04/22 00:43:45;;;;;;;6.00;3.10;;;;;;;2.80;69.77;100287.61;103096;1260;99263;-70
2024/04/22 00:46:12;;;;;;;5.40;3.30;;;;;;;2.81;69.68;100286.40;103507;1256;138119;-69
2024/04/22 00:48:39;;;;;;;5.60;3.30;;;;;;;2.80;69.41;100289.32;103279;1256;99185;-70
2024/04/22 00:51:08;;;;;;;4.90;3.30;;;;;;;2.80;69.41;100290.35;103183;1256;138794;-70
2024/04/22 00:53:35;;;;;;;4.40;3.10;;;;;;;2.80;69.50;100288.46;103517;1255;107762;-70
2024/04/22 00:56:02;;;;;;;4.70;3.30;;;;;;;2.79;69.29;100285.72;103161;1257;99167;-70
2024/04/22 00:58:30;;;;;;;4.00;3.20;;;;;;;2.78;69.24;100286.59;104269;1256;138390;-71
2024/04/22 01:00:59;;;;;;;4.30;3.10;;;;;;;2.76;69.10;100288.30;104477;1256;97170;-72
2024/04/22 01:03:26;;;;;;;5.90;2.90;;;;;;;2.75;69.29;100285.89;104330;1257;161745;-72
2024/04/22 01:05:54;;;;;;;5.30;3.00;;;;;;;2.75;69.00;100286.92;104466;1256;107934;-72
2024/04/22 01:08:21;;;;;;;5.00;3.00;;;;;;;2.75;69.01;100285.89;104530;1256;97377;-72
2024/04/22 01:10:47;;;;;;;5.60;3.20;;;;;;;2.76;69.13;100276.11;103518;1256;138517;-71
2024/04/22 01:13:15;;;;;;;3.70;2.90;;;;;;;2.79;68.84;100283.99;103088;1256;99186;-72
2024/04/22 01:15:41;;;;;;;4.50;2.80;;;;;;;2.79;68.79;100284.86;103014;1256;138391;-71
2024/04/22 01:18:08;;;;;;;3.20;2.60;;;;;;;2.79;68.93;100286.23;103184;1259;106774;-71
2024/04/22 01:20:35;;;;;;;3.90;2.80;;;;;;;2.78;68.80;100285.55;103085;1256;99783;-71
2024/04/22 01:23:02;;;;;;;4.50;2.70;;;;;;;2.79;68.71;100284.86;103025;1256;138667;-71
2024/04/22 01:25:31;;;;;;;3.90;2.70;;;;;;;2.80;68.75;100284.17;103248;1259;99069;-70
2024/04/22 01:27:58;;;;;;;4.30;2.90;;;;;;;2.82;68.91;100280.90;104389;1256;138590;-71
2024/04/22 01:30:25;;;;;;;5.40;3.20;;;;;;;2.83;68.67;100285.20;103459;1256;107646;-71
2024/04/22 01:32:51;;;;;;;7.60;2.90;;;;;;;2.83;68.68;100284.34;103423;1256;99256;-72
2024/04/22 01:35:19;;;;;;;9.40;2.60;;;;;;;2.83;68.70;100278.66;103194;1256;138738;-71
2024/04/22 01:37:45;;;;;;;6.00;2.90;;;;;;;2.85;68.53;100273.52;103281;1259;99164;-72
2024/04/22 01:40:13;;;;;;;6.80;4.10;;;;;;;2.85;68.54;100272.48;103122;1256;139341;-71
2024/04/22 01:42:40;;;;;;;3.80;2.80;;;;;;;2.86;68.60;100269.58;103132;1256;108186;-71
2024/04/22 01:45:08;;;;;;;5.00;2.70;;;;;;;2.86;68.44;100270.09;103038;1256;138529;-71
2024/04/22 01:47:35;;;;;;;4.40;2.80;;;;;;;2.84;68.48;100268.88;103093;1256;107968;-71
2024/04/22 01:50:02;;;;;;;3.50;2.60;;;;;;;2.85;68.60;100268.88;103094;1256;99963;-71
2024/04/22 01:52:29;;;;;;;3.50;2.30;;;;;;;2.87;68.54;100267.87;103109;1256;138926;-71
2024/04/22 01:54:56;;;;;;;5.40;3.20;;;;;;;2.87;68.55;100264.41;102399;1256;1002763;-72
2024/04/22 01:57:23;;;;;;;5.40;2.50;;;;;;;2.87;68.36;100266.67;103087;1259;138824;-71
2024/04/22 01:59:51;;;;;;;3.30;2.50;;;;;;;2.87;68.34;100268.20;102337;1259;1003340;-70
2024/04/22 02:02:18;;;;;;;5.20;2.20;;;;;;;2.88;68.20;100270.27;103131;1260;99113;-71
2024/04/22 02:04:45;;;;;;;3.90;2.60;;;;;;;2.86;68.07;100268.90;103009;1256;138217;-72
2024/04/22 02:07:11;;;;;;;5.40;2.70;;;;;;;2.85;68.11;100270.26;103168;1257;108144;-71
2024/04/22 02:09:38;;;;;;;4.70;2.70;;;;;;;2.84;68.10;100266.14;103102;1259;138581;-71
2024/04/22 02:12:06;;;;;;;5.10;2.70;;;;;;;2.83;68.10;100265.80;103192;1257;108798;-72
2024/04/22 02:14:33;;;;;;;4.10;2.60;;;;;;;2.84;68.23;100268.88;103218;1259;99034;-70
2024/04/22 02:17:00;;;;;;;5.60;2.30;;;;;;;2.84;68.14;100263.04;103291;1256;138718;-70
2024/04/22 02:19:28;;;;;;;4.10;2.70;;;;;;;2.85;68.26;100262.70;103076;1256;124012;-70
2024/04/22 02:21:55;;;;;;;5.90;2.70;;;;;;;2.85;68.20;100261.15;103384;1256;138319;-71
2024/04/22 02:24:22;;;;;;;3.60;2.80;;;;;;;2.86;68.38;100260.30;103193;1259;106635;-71
2024/04/22 02:26:49;;;;;;;5.40;2.30;;;;;;;2.88;68.31;100259.80;103159;1259;99824;-71
2024/04/22 02:29:16;;;;;;;5.50;2.90;;;;;;;2.88;68.36;100257.39;103118;1259;138004;-71
2024/04/22 02:31:43;;;;;;;5.20;2.60;;;;;;;2.87;68.27;100258.59;103201;1260;107560;-72
2024/04/22 02:34:10;;;;;;;7.30;2.90;;;;;;;2.87;68.29;100257.04;103125;1256;138893;-72
2024/04/22 02:36:37;;;;;;;4.10;2.90;;;;;;;2.87;68.39;100259.80;103152;1256;106608;-72
2024/04/22 02:39:04;;;;;;;3.60;2.80;;;;;;;2.87;68.31;100255.83;103047;1257;138939;-71
2024/04/22 02:41:31;;;;;;;5.50;2.80;;;;;;;2.85;68.10;100249.83;103168;1259;115325;-72
2024/04/22 02:43:58;;;;;;;4.80;2.90;;;;;;;2.86;68.10;100254.28;103213;1257;106361;-72
2024/04/22 02:46:25;;;;;;;3.60;2.70;;;;;;;2.84;68.19;100250.16;103393;1256;139568;-72
2024/04/22 02:48:52;;;;;;;3.90;2.90;;;;;;;2.83;68.28;100248.79;103181;1256;106879;-72
2024/04/22 02:51:19;;;;;;;5.70;2.70;;;;;;;2.83;68.33;100248.45;103258;1256;141018;-72
2024/04/22 02:53:45;;;;;;;6.40;3.00;;;;;;;2.81;68.23;100241.58;103279;1256;112945;-72
2024/04/22 02:56:12;;;;;;;3.70;2.90;;;;;;;2.80;68.24;100242.11;103249;1256;108631;-71
2024/04/22 02:58:39;;;;;;;5.20;2.60;;;;;;;2.79;68.20;100239.18;103340;1257;138343;-70
2024/04/22 03:01:10;;;;;;;5.10;2.80;;;;;;;2.78;68.44;100235.75;103205;1256;107904;-70
2024/04/22 03:03:37;;;;;;;5.20;3.10;;;;;;;2.77;68.23;100235.75;102626;1256;1003300;-70
2024/04/22 03:06:06;;;;;;;4.60;3.10;;;;;;;2.76;68.30;100235.77;103454;1261;111770;-72
2024/04/22 03:08:33;;;;;;;5.70;3.70;;;;;;;2.74;68.39;100236.11;103220;1256;109050;-71
2024/04/22 03:11:03;;;;;;;5.00;3.00;;;;;;;2.74;68.42;100240.58;102478;1257;1003033;-71
2024/04/22 03:13:30;;;;;;;3.80;3.10;;;;;;;2.69;68.39;100233.02;103251;1256;108786;-71
2024/04/22 03:15:57;;;;;;;9.50;3.10;;;;;;;2.67;68.34;100237.98;103315;1256;139425;-71
2024/04/22 03:18:25;;;;;;;5.00;3.20;;;;;;;2.65;68.60;100238.67;103477;1256;112746;-71
2024/04/22 03:20:52;;;;;;;5.70;3.00;;;;;;;2.65;68.62;100241.24;103662;1256;108116;-71
2024/04/22 03:23:19;;;;;;;6.80;3.20;;;;;;;2.64;68.68;100245.20;102966;1257;138376;-71
2024/04/22 03:25:46;;;;;;;3.90;2.80;;;;;;;2.63;68.63;100248.80;103534;1256;107582;-71
2024/04/22 03:28:13;;;;;;;5.60;3.00;;;;;;;2.63;68.88;100242.98;103449;1256;138434;-72
2024/04/22 03:30:40;;;;;;;4.00;3.40;;;;;;;2.62;68.77;100243.66;103318;1256;111956;-72
2024/04/22 03:33:08;;;;;;;6.20;3.50;;;;;;;2.62;68.96;100241.08;103112;1259;138538;-72
2024/04/22 03:35:35;;;;;;;5.10;3.40;;;;;;;2.63;69.01;100236.27;103265;1259;99148;-72
2024/04/22 03:38:02;;;;;;;5.30;3.30;;;;;;;2.63;68.94;100236.61;103153;1256;106653;-71
2024/04/22 03:40:28;;;;;;;6.40;3.40;;;;;;;2.63;68.87;100239.70;103112;1255;138493;-72
2024/04/22 03:42:55;;;;;;;5.10;3.50;;;;;;;2.63;68.84;100235.76;103226;1259;113621;-71
2024/04/22 03:45:22;;;;;;;4.70;3.20;;;;;;;2.62;68.97;100234.20;103110;1257;139315;-71
2024/04/22 03:50:40;;;;;;;5.60;3.50;;;;;;;2.60;69.16;100233.53;102573;1256;1003027;-71
2024/04/22 03:53:08;;;;;;;5.10;3.40;;;;;;;2.61;69.05;100235.25;103620;1256;138468;-70
2024/04/22 03:55:35;;;;;;;5.50;3.30;;;;;;;2.62;69.24;100240.73;104494;1256;112654;-74
2024/04/22 03:58:02;;;;;;;4.30;3.20;;;;;;;2.63;69.29;100241.25;104357;1256;138817;-70
2024/04/22 04:00:29;;;;;;;5.30;3.40;;;;;;;2.64;69.34;100242.45;104470;1257;97509;-72
2024/04/22 04:02:57;;;;;;;4.70;3.20;;;;;;;2.67;69.34;100238.32;104505;1256;108032;-72
2024/04/22 04:05:24;;;;;;;6.40;3.40;;;;;;;2.70;69.41;100237.14;104495;1255;97275;-72
2024/04/22 04:07:52;;;;;;;5.50;3.30;;;;;;;2.72;69.24;100233.53;104513;1255;111876;-72
2024/04/22 04:10:19;;;;;;;5.00;3.50;;;;;;;2.74;69.24;100232.50;103654;1259;138621;-72
2024/04/22 04:12:46;;;;;;;5.80;3.60;;;;;;;2.80;69.18;100236.09;103245;1256;99174;-72
2024/04/22 04:15:13;;;;;;;5.30;3.20;;;;;;;2.84;69.17;100240.55;103256;1259;138350;-71
2024/04/22 04:17:40;;;;;;;5.90;3.40;;;;;;;2.87;69.04;100242.27;103347;1256;99257;-72
2024/04/22 04:20:10;;;;;;;5.70;3.40;;;;;;;2.90;69.26;100247.09;103507;1256;113622;-73
2024/04/22 04:22:37;;;;;;;4.40;3.20;;;;;;;2.93;69.23;100251.20;103148;1256;138400;-70
2024/04/22 04:25:04;;;;;;;4.70;3.70;;;;;;;2.95;69.17;100251.88;102963;1257;1002683;-71
2024/04/22 04:27:31;;;;;;;5.20;3.20;;;;;;;2.98;69.22;100254.63;102391;1256;1003606;-72
2024/04/22 04:29:58;;;;;;;4.50;3.10;;;;;;;3.00;69.11;100256.50;103299;1256;99147;-71
2024/04/22 04:32:26;;;;;;;7.70;3.20;;;;;;;3.05;69.37;100255.47;103285;1257;112503;-71
2024/04/22 04:34:54;;;;;;;5.20;3.50;;;;;;;3.07;69.20;100258.23;103204;1259;138363;-71
2024/04/22 04:37:21;;;;;;;6.90;3.00;;;;;;;3.09;68.98;100256.51;103326;1256;99685;-70
2024/04/22 04:39:49;;;;;;;7.10;4.20;;;;;;;3.12;69.30;100260.96;103474;1256;138557;-70
2024/04/22 04:42:16;;;;;;;5.40;3.30;;;;;;;3.15;69.12;100263.19;103298;1256;99180;-70
2024/04/22 04:44:43;;;;;;;5.90;3.80;;;;;;;3.16;69.08;100267.13;103477;1257;113736;-71
2024/04/22 04:47:10;;;;;;;5.30;3.40;;;;;;;3.15;68.93;100268.34;102922;1258;138611;-71
2024/04/22 04:49:37;;;;;;;6.40;3.60;;;;;;;3.13;68.85;100267.48;103373;1256;99264;-71
2024/04/22 04:52:05;;;;;;;5.70;3.60;;;;;;;3.12;68.86;100268.69;103258;1257;138335;-71
2024/04/22 04:54:32;;;;;;;5.00;3.20;;;;;;;3.11;69.05;100271.80;102488;1256;1002776;-71
2024/04/22 04:56:59;;;;;;;4.70;3.40;;;;;;;3.10;68.92;100274.89;104131;1257;113288;-70
2024/04/22 04:59:27;;;;;;;5.80;3.30;;;;;;;3.10;69.07;100275.40;102973;1256;109460;-71
2024/04/22 05:01:54;;;;;;;4.90;3.60;;;;;;;3.12;69.14;100277.29;103190;1257;99084;-70
2024/04/22 05:04:21;;;;;;;6.10;3.80;;;;;;;3.11;68.90;100278.32;103020;1256;138275;-70
2024/04/22 05:06:48;;;;;;;5.20;3.40;;;;;;;3.08;68.95;100281.42;103285;1257;99202;-71
2024/04/22 05:09:17;;;;;;;4.50;3.50;;;;;;;3.07;69.08;100277.81;103036;1256;138578;-72
2024/04/22 05:11:45;;;;;;;4.80;3.60;;;;;;;3.11;68.98;100281.75;103016;1256;108274;-72
2024/04/22 05:14:13;;;;;;;5.20;3.40;;;;;;;3.12;69.16;100283.30;103054;1259;99776;-71
2024/04/22 05:16:42;;;;;;;5.00;3.90;;;;;;;3.14;69.12;100281.40;102899;1256;138206;-71
2024/04/22 05:19:09;;;;;;;7.20;3.60;;;;;;;3.15;69.07;100278.98;103385;1257;99236;-71
2024/04/22 05:21:36;;;;;;;5.80;3.00;;;;;;;3.18;69.07;100283.63;103131;1262;138751;-71
2024/04/22 05:24:11;;;;;;;5.30;3.40;;;;;;;3.20;69.17;100282.92;102938;1256;108056;-72
2024/04/22 05:26:38;;;;;;;7.00;3.60;;;;;;;3.22;69.13;100285.34;103480;1256;98065;-71
2024/04/22 05:29:06;;;;;;;4.80;3.40;;;;;;;3.27;69.26;100287.23;102994;1256;138392;-71
2024/04/22 05:31:33;;;;;;;7.00;4.30;;;;;;;3.32;69.28;100285.84;102987;1256;99053;-71
2024/04/22 05:36:44;;;;;;;4.90;3.40;;;;;;;3.41;69.16;100287.20;103555;1256;106749;-72
2024/04/22 05:39:11;;;;;;;6.00;3.50;;;;;;;3.43;69.26;100285.30;103114;1257;139835;-72
2024/04/22 05:41:39;;;;;;;5.10;3.80;;;;;;;3.44;69.22;100279.97;103081;1256;106977;-71
2024/04/22 05:44:07;;;;;;;7.20;3.90;;;;;;;3.44;69.07;100278.77;103202;1257;99133;-71
2024/04/22 05:46:34;;;;;;;4.60;3.80;;;;;;;3.45;69.20;100280.66;103239;1256;138886;-71
2024/04/22 05:49:01;;;;;;;7.00;3.60;;;;;;;3.46;69.14;100278.59;103202;1259;107166;-71
2024/04/22 05:51:28;;;;;;;7.00;4.00;;;;;;;3.49;69.31;100279.09;103094;1255;138712;-72
2024/04/22 05:53:55;;;;;;;4.80;3.70;;;;;;;3.51;69.43;100272.90;102772;1259;107867;-72
2024/04/22 05:56:23;;;;;;;5.60;3.50;;;;;;;3.56;69.35;100277.00;103057;1256;99292;-71
2024/04/22 05:58:50;;;;;;;5.10;4.10;;;;;;;3.63;69.58;100280.08;104352;1256;138251;-71
2024/04/22 06:01:17;;;;;;;6.30;4.00;;;;;;;3.72;69.29;100274.88;104402;1256;107222;-72
2024/04/22 06:03:44;;;;;;;5.20;4.00;;;;;;;3.77;68.97;100275.38;104372;1256;139765;-72
2024/04/22 06:06:11;;;;;;;4.80;3.80;;;;;;;3.83;69.18;100271.41;104433;1256;106760;-69
2024/04/22 06:08:37;;;;;;;5.90;3.60;;;;;;;3.92;69.08;100267.23;104471;1259;96927;-70
2024/04/22 06:11:05;;;;;;;4.60;3.70;;;;;;;4.01;68.82;100271.15;103749;1259;138615;-73
2024/04/22 06:13:32;;;;;;;7.40;3.50;;;;;;;4.11;68.78;100271.27;103125;1259;108492;-72
2024/04/22 06:15:59;;;;;;;7.50;3.60;;;;;;;4.22;68.55;100270.34;103111;1257;138450;-72
2024/04/22 06:18:26;;;;;;;5.20;3.60;;;;;;;4.35;68.40;100266.64;103142;1256;107889;-73
2024/04/22 06:20:53;;;;;;;5.20;3.40;;;;;;;4.45;68.14;100264.67;103189;1259;100498;-73
2024/04/22 06:23:20;;;;;;;5.40;3.40;;;;;;;4.57;67.91;100267.87;103019;1256;138258;-73
2024/04/22 06:25:46;;;;;;;8.10;3.30;;;;;;;4.67;67.44;100269.69;103148;1256;106813;-73
2024/04/22 06:28:13;;;;;;;3.00;2.60;;;;;;;4.75;67.17;100266.52;102990;1259;139064;-74
2024/04/22 06:30:40;;;;;;;3.90;2.90;;;;;;;4.83;66.65;100264.39;103081;1256;107732;-72
2024/04/22 06:33:08;;;;;;;6.00;2.90;;;;;;;4.94;66.82;100268.94;102924;1259;139048;-73
2024/04/22 06:35:35;;;;;;;3.70;2.90;;;;;;;5.06;66.39;100269.70;103091;1256;112563;-72
2024/04/22 06:38:02;;;;;;;6.00;3.10;;;;;;;5.16;66.13;100270.11;102806;1261;108473;-74
2024/04/22 06:40:32;;;;;;;5.60;4.00;;;;;;;5.31;66.07;100271.34;102993;1256;139266;-73
2024/04/22 06:42:59;;;;;;;4.70;2.90;;;;;;;5.48;65.68;100270.64;103016;1256;108475;-73
2024/04/22 06:45:25;;;;;;;5.00;2.90;;;;;;;5.66;65.28;100272.33;103212;1256;138978;-73
2024/04/22 06:47:54;;;;;;;5.20;2.40;;;;;;;5.87;64.82;100268.82;104224;1256;112473;-73
2024/04/22 06:50:21;;;;;;;5.10;3.10;;;;;;;6.04;64.27;100270.51;103246;1256;106781;-73
2024/04/22 06:52:48;;;;;;;3.90;3.10;;;;;;;6.18;63.86;100271.88;102389;1257;1003451;-72
2024/04/22 06:55:16;;;;;;;4.30;2.90;;;;;;;6.27;63.66;100273.13;103110;1256;108108;-74
2024/04/22 06:57:43;;;;;;;4.80;2.90;;;;;;;6.36;63.45;100273.52;102988;1256;138412;-74
2024/04/22 07:00:12;;;;;;;2.70;2.40;;;;;;;6.47;62.92;100276.83;103058;1259;112271;-73
2024/04/22 07:02:39;;;;;;;5.30;2.60;;;;;;;6.46;62.22;100272.84;104491;1256;106800;-75
2024/04/22 07:05:06;;;;;;;8.00;2.70;;;;;;;6.44;61.91;100280.81;104374;1256;139333;-71
2024/04/22 07:07:34;;;;;;;3.70;2.70;;;;;;;6.46;61.74;100281.49;104477;1256;107289;-73
2024/04/22 07:10:05;;;;;;;7.20;3.20;;;;;;;6.60;61.78;100278.86;104389;1259;138030;-72
2024/04/22 07:12:32;;;;;;;3.70;2.80;;;;;;;6.74;61.57;100278.30;103597;1256;112259;-73
2024/04/22 07:14:58;;;;;;;4.40;2.90;;;;;;;6.79;61.72;100281.48;103177;1259;106818;-73
2024/04/22 07:17:26;;;;;;;3.80;2.60;;;;;;;6.88;61.20;100280.14;103020;1262;99164;-73
2024/04/22 07:19:54;;;;;;;2.90;2.40;;;;;;;7.07;61.22;100279.81;102992;1262;107829;-74
2024/04/22 07:22:22;;;;;;;3.80;2.60;;;;;;;7.35;60.36;100275.86;104236;1256;138038;-73
2024/04/22 07:24:50;;;;;;;2.40;2.20;;;;;;;7.52;60.05;100274.33;103158;1259;111401;-74
2024/04/22 07:27:32;;;;;;;3.50;2.60;;;;;;;7.61;59.92;100271.39;103049;1259;138073;-72
2024/04/22 07:30:03;;;;;;;3.50;2.40;;;;;;;7.68;59.67;100275.05;103279;1259;99162;-74
2024/04/22 07:32:31;;;;;;;3.40;2.30;;;;;;;7.83;59.22;100279.06;103346;1259;108312;-74
2024/04/22 07:35:01;;;;;;;5.60;3.40;;;;;;;7.87;58.90;100281.21;103337;1257;137746;-73
2024/04/22 07:37:35;;;;;;;4.80;3.20;;;;;;;7.76;58.73;100284.92;103532;1256;111507;-72
2024/04/22 07:40:12;;;;;;;4.10;3.20;;;;;;;7.68;58.77;100284.90;103187;1259;137798;-74
2024/04/22 07:42:39;;;;;;;3.10;2.70;;;;;;;7.57;58.34;100284.77;103203;1256;99097;-73
2024/04/22 07:45:07;;;;;;;6.20;3.50;;;;;;;7.47;59.08;100288.25;103182;1256;138068;-75
2024/04/22 07:47:34;;;;;;;4.70;3.40;;;;;;;7.37;58.37;100285.86;103319;1256;99162;-73
2024/04/22 07:50:01;;;;;;;4.10;2.90;;;;;;;7.15;58.55;100282.44;103402;1256;111291;-74
2024/04/22 07:52:29;;;;;;;5.40;4.10;;;;;;;7.04;58.87;100287.83;103181;1259;138008;-74
2024/04/22 07:54:57;;;;;;;4.30;3.30;;;;;;;6.93;59.21;100288.17;103354;1259;99076;-72
2024/04/22 07:57:26;;;;;;;5.40;3.00;;;;;;;6.85;59.19;100289.70;102992;1257;138048;-73
2024/04/22 07:59:54;;;;;;;5.50;3.20;;;;;;;6.78;59.37;100289.64;104453;1256;97359;-75
2024/04/22 08:02:24;;;;;;;3.60;2.80;;;;;;;6.79;59.45;100294.27;104473;1259;111802;-75
2024/04/22 08:04:53;;;;;;;4.50;2.90;;;;;;;6.88;59.41;100295.19;104375;1257;138393;-73
2024/04/22 08:07:20;;;;;;;4.90;2.70;;;;;;;6.91;59.23;100293.58;104487;1256;98333;-72
2024/04/22 08:09:48;;;;;;;5.00;2.90;;;;;;;6.99;59.32;100290.84;103761;1259;138406;-71
2024/04/22 08:12:15;;;;;;;5.30;2.30;;;;;;;7.10;58.65;100288.23;103195;1256;99176;-70
2024/04/22 08:14:42;;;;;;;3.10;2.40;;;;;;;7.14;58.09;100291.45;103238;1257;113382;-72
2024/04/22 08:17:09;;;;;;;2.80;2.00;;;;;;;7.23;57.96;100294.23;103192;1259;137764;-71
2024/04/22 08:19:38;;;;;;;3.40;2.20;;;;;;;7.32;57.68;100293.73;103438;1256;99188;-70
2024/04/22 08:22:06;;;;;;;4.70;2.20;;;;;;;7.30;57.27;100290.30;103272;1259;137526;-70
2024/04/22 08:24:33;;;;;;;5.10;2.40;;;;;;;7.21;57.15;100289.95;104461;1257;98273;-73
2024/04/22 08:27:01;;;;;;;4.00;2.60;;;;;;;7.11;57.07;100286.14;103756;1257;112058;-72
2024/04/22 08:29:28;;;;;;;3.00;2.40;;;;;;;6.98;57.05;100289.48;103288;1257;108182;-77
2024/04/22 08:31:54;;;;;;;2.50;2.30;;;;;;;6.84;57.22;100288.67;103064;1262;99173;-74
2024/04/22 08:34:21;;;;;;;9.50;2.50;;;;;;;6.74;57.17;100286.25;103099;1260;137504;-74
2024/04/22 08:36:48;;;;;;;3.30;2.00;;;;;;;6.65;56.66;100286.04;103296;1258;99153;-75
2024/04/22 08:39:16;;;;;;;2.30;2.00;;;;;;;6.56;56.31;100290.31;103165;1256;137942;-73
2024/04/22 08:41:43;;;;;;;4.90;2.20;;;;;;;6.55;56.90;100290.34;103385;1261;108050;-75
2024/04/22 08:44:10;;;;;;;2.60;2.40;;;;;;;6.58;56.78;100286.14;103501;1257;100883;-74
2024/04/22 08:46:37;;;;;;;3.40;2.10;;;;;;;6.64;56.58;100285.02;103248;1259;137901;-73
2024/04/22 08:49:04;;;;;;;3.70;1.90;;;;;;;6.67;56.20;100288.44;103202;1257;99153;-72
2024/04/22 08:51:32;;;;;;;3.60;2.40;;;;;;;6.62;56.18;100292.45;103098;1258;137633;-72
2024/04/22 08:54:00;;;;;;;5.10;2.60;;;;;;;6.60;56.26;100301.83;103171;1259;106418;-73
2024/04/22 08:56:29;;;;;;;5.10;2.10;;;;;;;6.53;56.16;100305.39;103181;1259;99123;-72
2024/04/22 08:58:56;;;;;;;2.80;2.40;;;;;;;6.42;56.38;100307.95;102936;1256;137623;-77
2024/04/22 09:01:23;;;;;;;2.90;2.10;;;;;;;6.33;56.74;100313.80;103056;1259;102403;-77
2024/04/22 09:03:50;;;;;;;4.50;2.30;;;;;;;6.31;56.76;100319.88;102812;1258;137650;-77
2024/04/22 09:06:17;;;;;;;3.20;2.00;;;;;;;6.28;56.86;100321.48;102965;1262;107514;-73
2024/04/22 09:08:46;;;;;;;2.80;2.00;;;;;;;6.19;56.40;100321.92;102913;1257;100015;-73
2024/04/22 09:11:19;;;;;;;3.40;1.90;;;;;;;6.10;56.38;100321.36;102764;1262;137692;-74
2024/04/22 09:14:06;;;;;;;4.40;2.40;;;;;;;5.97;56.55;100327.73;102807;1257;99275;-74
2024/04/22 09:16:37;;;;;;;4.40;2.10;;;;;;;5.92;56.79;100327.45;102769;1261;137480;-73
2024/04/22 09:19:05;;;;;;;3.90;2.00;;;;;;;5.89;56.59;100332.98;102861;1256;106849;-73
2024/04/22 09:21:36;;;;;;;3.50;1.80;;;;;;;5.85;56.39;100330.95;102725;1263;140556;-72
2024/04/22 09:24:04;;;;;;;2.70;2.10;;;;;;;5.83;56.40;100338.73;103036;1260;108743;-75
2024/04/22 09:26:31;;;;;;;4.80;2.10;;;;;;;5.87;56.68;100344.04;102895;1257;99186;-62
2024/04/22 09:29:00;;;;;;;4.40;1.90;;;;;;;5.98;57.19;100350.33;102943;1259;137827;-75
2024/04/22 09:31:30;;;;;;;4.70;2.20;;;;;;;6.15;56.96;100349.10;103147;1256;106981;-74
2024/04/22 09:33:58;;;;;;;2.10;1.70;;;;;;;6.32;56.81;100347.83;102996;1258;137668;-74
2024/04/22 09:36:27;;;;;;;3.50;1.70;;;;;;;6.45;56.60;100349.89;103084;1263;108074;-75
2024/04/22 09:38:56;;;;;;;2.60;1.90;;;;;;;6.47;55.75;100353.85;102962;1256;99131;-75
2024/04/22 09:41:26;;;;;;;2.30;2.00;;;;;;;6.44;55.39;100359.93;102898;1262;137301;-76
2024/04/22 09:43:55;;;;;;;2.60;2.30;;;;;;;6.37;55.43;100363.13;103128;1262;107751;-73
2024/04/22 09:46:29;;;;;;;3.00;2.10;;;;;;;6.32;55.28;100362.69;103040;1257;137732;-74
2024/04/22 09:48:58;;;;;;;2.70;1.80;;;;;;;6.26;55.49;100363.42;100636;1258;1003540;-74
2024/04/22 09:51:25;;;;;;;2.60;1.90;;;;;;;6.23;55.63;100362.97;102759;1260;140420;-74
2024/04/22 09:53:53;;;;;;;2.40;2.00;;;;;;;6.17;55.74;100370.30;103011;1262;112061;-75
2024/04/22 09:56:25;;;;;;;2.30;2.10;;;;;;;6.13;55.84;100373.98;103012;1263;107698;-74
2024/04/22 09:58:53;;;;;;;2.10;1.90;;;;;;;6.12;55.90;100375.55;102908;1260;138718;-74
2024/04/22 10:01:20;;;;;;;4.20;2.10;;;;;;;6.10;55.80;100380.91;102954;1262;106864;-75
2024/04/22 10:03:48;;;;;;;4.00;2.20;;;;;;;6.06;55.64;100380.09;102933;1257;137616;-73
2024/04/22 10:06:17;;;;;;;2.90;2.40;;;;;;;6.00;55.41;100382.23;102960;1257;113784;-72
2024/04/22 10:08:47;;;;;;;3.20;2.20;;;;;;;5.90;55.34;100385.60;104477;1255;107177;-74
2024/04/22 10:11:14;;;;;;;3.20;2.20;;;;;;;5.84;55.68;100388.07;104280;1256;138310;-75
2024/04/22 10:13:42;;;;;;;2.40;2.20;;;;;;;5.84;55.32;100391.70;104384;1256;107582;-74
2024/04/22 10:16:14;;;;;;;3.10;2.30;;;;;;;5.81;55.51;100388.11;103419;1262;138544;-75
2024/04/22 10:18:47;;;;;;;4.00;2.20;;;;;;;5.82;55.43;100390.52;103107;1261;111905;-74
2024/04/22 10:21:15;;;;;;;2.20;1.90;;;;;;;5.85;55.38;100386.86;102919;1260;138191;-78
2024/04/22 10:23:44;;;;;;;3.80;2.20;;;;;;;5.88;55.50;100387.69;103251;1257;99181;-77
2024/04/22 10:26:19;;;;;;;2.70;2.10;;;;;;;5.98;55.79;100387.27;103159;1257;105721;-75
2024/04/22 10:28:46;;;;;;;3.60;2.10;;;;;;;6.08;55.73;100389.91;103009;1260;137696;-74
2024/04/22 10:31:19;;;;;;;6.40;1.80;;;;;;;6.13;54.82;100387.79;103167;1259;113051;-76
2024/04/22 10:33:46;;;;;;;2.40;2.00;;;;;;;6.17;54.43;100386.53;103696;1258;137748;-75
2024/04/22 10:36:13;;;;;;;2.90;2.20;;;;;;;6.20;54.30;100382.70;103100;1260;99633;-73
2024/04/22 10:38:40;;;;;;;3.40;2.10;;;;;;;6.24;54.25;100385.40;103193;1260;107971;-74
2024/04/22 10:41:08;;;;;;;3.00;2.20;;;;;;;6.27;54.13;100387.27;103031;1260;137648;-75
2024/04/22 10:43:36;;;;;;;4.30;2.20;;;;;;;6.30;54.05;100387.23;103174;1257;111145;-73
2024/04/22 10:46:03;;;;;;;4.50;2.00;;;;;;;6.32;54.10;100388.41;103818;1256;137663;-76
2024/04/22 10:48:30;;;;;;;3.90;2.10;;;;;;;6.33;54.14;100387.36;103221;1260;99580;-78
2024/04/22 10:50:57;;;;;;;4.60;2.20;;;;;;;6.34;53.89;100389.42;103205;1257;106728;-77
2024/04/22 10:53:24;;;;;;;5.60;2.20;;;;;;;6.34;53.89;100388.73;103085;1260;99148;-77
2024/04/22 10:55:51;;;;;;;3.10;2.20;;;;;;;6.33;53.94;100386.86;103176;1260;112262;-77
2024/04/22 10:58:18;;;;;;;4.20;2.30;;;;;;;6.31;54.04;100387.23;103083;1263;137893;-78
2024/04/22 11:00:47;;;;;;;3.40;2.20;;;;;;;6.29;53.66;100379.82;103083;1265;99680;-78
2024/04/22 11:03:17;;;;;;;4.80;2.40;;;;;;;6.27;54.00;100385.34;103057;1259;137815;-77
2024/04/22 11:05:47;;;;;;;2.40;2.20;;;;;;;6.25;53.92;100381.75;103073;1257;99235;-76
2024/04/22 11:08:14;;;;;;;4.10;2.30;;;;;;;6.25;54.24;100385.21;103099;1269;113703;-77
2024/04/22 11:10:42;;;;;;;3.20;2.40;;;;;;;6.27;54.04;100381.90;102992;1262;137632;-72
2024/04/22 11:13:10;;;;;;;2.60;2.10;;;;;;;6.23;54.02;100387.14;102963;1257;99199;-76
2024/04/22 11:15:37;;;;;;;4.90;2.20;;;;;;;6.24;54.14;100393.34;103037;1259;137610;-76
2024/04/22 11:18:08;;;;;;;3.20;2.50;;;;;;;6.30;54.13;100392.08;103185;1257;99236;-71
2024/04/22 11:20:36;;;;;;;4.20;2.30;;;;;;;6.32;54.10;100394.83;103256;1257;112398;-71
2024/04/22 11:23:03;;;;;;;2.90;2.30;;;;;;;6.36;53.87;100394.23;102924;1257;138254;-71
2024/04/22 11:25:30;;;;;;;3.70;2.20;;;;;;;6.41;53.86;100393.48;103163;1258;99226;-72
2024/04/22 11:27:57;;;;;;;4.80;2.30;;;;;;;6.41;53.54;100393.30;103019;1257;137654;-71